sensor_id;sensor_type;location;lat;lon;timestamp;temperature;humidity
3626;DHT22;1827;50.534;8.316;2022-12-18T00:01:26;-8.30;1.00
3626;DHT22;1827;50.534;8.316;2022-12-18T00:03:53;-8.30;1.00
3626;DHT22;1827;50.534;8.316;2022-12-18T00:06:18;-8.30;1.00
3626;DHT22;1827;50.534;8.316;2022-12-18T00:08:44;-8.40;1.00
3626;DHT22;1827;50.534;8.316;2022-12-18T00:11:11;-8.40;1.00
3626;DHT22;1827;50.534;8.316;2022-12-18T00:13:38;-8.40;1.00
3626;DHT22;1827;50.534;8.316;2022-12-18T00:16:05;-8.60;1.00
3626;DHT22;1827;50.534;8.316;2022-12-18T00:18:31;-8.70;1.00
3626;DHT22;1827;50.534;8.316;2022-12-18T00:21:02;-9.00;1.00
3626;DHT22;1827;50.534;8.316;2022-12-18T00:23:28;-9.20;1.00
3626;DHT22;1827;50.534;8.316;2022-12-18T00:25:54;-9.30;1.00
3626;DHT22;1827;50.534;8.316;2022-12-18T00:28:20;-9.20;1.00
3626;DHT22;1827;50.534;8.316;2022-12-18T00:30:45;-9.10;1.00
3626;DHT22;1827;50.534;8.316;2022-12-18T00:33:11;-9.10;1.00
3626;DHT22;1827;50.534;8.316;2022-12-18T00:35:37;-9.10;1.00
3626;DHT22;1827;50.534;8.316;2022-12-18T00:38:02;-9.00;1.00
3626;DHT22;1827;50.534;8.316;2022-12-18T00:40:28;-8.90;1.00
3626;DHT22;1827;50.534;8.316;2022-12-18T00:42:53;-8.80;1.00
3626;DHT22;1827;50.534;8.316;2022-12-18T00:45:23;-8.80;1.00
3626;DHT22;1827;50.534;8.316;2022-12-18T00:47:48;-8.70;1.00
3626;DHT22;1827;50.534;8.316;2022-12-18T00:50:14;-8.70;1.00
3626;DHT22;1827;50.534;8.316;2022-12-18T00:52:40;-8.80;1.00
3626;DHT22;1827;50.534;8.316;2022-12-18T00:55:06;-8.70;1.00
3626;DHT22;1827;50.534;8.316;2022-12-18T00:57:32;-8.70;1.00
3626;DHT22;1827;50.534;8.316;2022-12-18T00:59:57;-8.70;1.00
3626;DHT22;1827;50.534;8.316;2022-12-18T01:02:23;-8.70;1.00
3626;DHT22;1827;50.534;8.316;2022-12-18T01:04:48;-8.80;1.00
3626;DHT22;1827;50.534;8.316;2022-12-18T01:07:18;-8.80;1.00
3626;DHT22;1827;50.534;8.316;2022-12-18T01:09:43;-8.90;1.00
3626;DHT22;1827;50.534;8.316;2022-12-18T01:12:09;-9.00;1.00
3626;DHT22;1827;50.534;8.316;2022-12-18T01:14:35;-9.10;1.00
3626;DHT22;1827;50.534;8.316;2022-12-18T01:17:01;-9.20;1.00
3626;DHT22;1827;50.534;8.316;2022-12-18T01:19:31;-9.30;1.00
3626;DHT22;1827;50.534;8.316;2022-12-18T01:21:57;-9.30;1.00
3626;DHT22;1827;50.534;8.316;2022-12-18T01:24:23;-9.30;1.00
3626;DHT22;1827;50.534;8.316;2022-12-18T01:26:48;-9.30;1.00
3626;DHT22;1827;50.534;8.316;2022-12-18T01:29:14;-9.30;1.00
3626;DHT22;1827;50.534;8.316;2022-12-18T01:31:39;-9.30;1.00
3626;DHT22;1827;50.534;8.316;2022-12-18T01:34:05;-9.40;1.00
3626;DHT22;1827;50.534;8.316;2022-12-18T01:36:32;-9.30;1.00
3626;DHT22;1827;50.534;8.316;2022-12-18T01:39:02;-9.30;1.00
3626;DHT22;1827;50.534;8.316;2022-12-18T01:41:29;-9.40;1.00
3626;DHT22;1827;50.534;8.316;2022-12-18T01:46:58;-9.40;1.00
3626;DHT22;1827;50.534;8.316;2022-12-18T01:49:24;-9.40;1.00
3626;DHT22;1827;50.534;8.316;2022-12-18T01:51:50;-9.40;1.00
3626;DHT22;1827;50.534;8.316;2022-12-18T01:54:15;-9.50;1.00
3626;DHT22;1827;50.534;8.316;2022-12-18T01:56:41;-9.40;1.00
3626;DHT22;1827;50.534;8.316;2022-12-18T01:59:07;-9.40;1.00
3626;DHT22;1827;50.534;8.316;2022-12-18T02:01:34;-9.50;1.00
3626;DHT22;1827;50.534;8.316;2022-12-18T02:10:18;-9.30;1.00
3626;DHT22;1827;50.534;8.316;2022-12-18T02:12:40;-9.30;1.00
3626;DHT22;1827;50.534;8.316;2022-12-18T02:16:12;-9.30;1.00
3626;DHT22;1827;50.534;8.316;2022-12-18T02:18:08;-9.20;1.00
3626;DHT22;1827;50.534;8.316;2022-12-18T02:20:38;-9.30;1.00
3626;DHT22;1827;50.534;8.316;2022-12-18T02:26:00;-9.10;1.00
3626;DHT22;1827;50.534;8.316;2022-12-18T02:28:34;-9.10;1.00
3626;DHT22;1827;50.534;8.316;2022-12-18T02:31:04;-9.10;1.00
3626;DHT22;1827;50.534;8.316;2022-12-18T02:33:32;-9.20;1.00
3626;DHT22;1827;50.534;8.316;2022-12-18T02:35:58;-9.30;1.00
3626;DHT22;1827;50.534;8.316;2022-12-18T02:38:26;-9.20;1.00
3626;DHT22;1827;50.534;8.316;2022-12-18T02:40:53;-9.20;1.00
3626;DHT22;1827;50.534;8.316;2022-12-18T02:43:20;-9.30;1.00
3626;DHT22;1827;50.534;8.316;2022-12-18T02:45:50;-9.20;1.00
3626;DHT22;1827;50.534;8.316;2022-12-18T02:48:18;-9.20;1.00
3626;DHT22;1827;50.534;8.316;2022-12-18T02:50:48;-9.30;1.00
3626;DHT22;1827;50.534;8.316;2022-12-18T02:53:27;-9.30;1.00
3626;DHT22;1827;50.534;8.316;2022-12-18T03:03:40;-9.50;1.00
3626;DHT22;1827;50.534;8.316;2022-12-18T03:06:10;-9.50;1.00
3626;DHT22;1827;50.534;8.316;2022-12-18T03:08:39;-9.60;1.00
3626;DHT22;1827;50.534;8.316;2022-12-18T03:11:07;-9.70;1.00
3626;DHT22;1827;50.534;8.316;2022-12-18T03:13:36;-9.80;1.00
3626;DHT22;1827;50.534;8.316;2022-12-18T03:16:04;-9.90;1.00
3626;DHT22;1827;50.534;8.316;2022-12-18T03:20:57;-10.10;1.00
3626;DHT22;1827;50.534;8.316;2022-12-18T03:23:27;-10.10;1.00
3626;DHT22;1827;50.534;8.316;2022-12-18T03:25:54;-10.20;1.00
3626;DHT22;1827;50.534;8.316;2022-12-18T03:28:23;-10.30;1.00
3626;DHT22;1827;50.534;8.316;2022-12-18T03:30:55;-10.30;1.00
3626;DHT22;1827;50.534;8.316;2022-12-18T03:33:46;-10.30;1.00
3626;DHT22;1827;50.534;8.316;2022-12-18T03:36:12;-10.30;1.00
3626;DHT22;1827;50.534;8.316;2022-12-18T03:38:38;-10.40;1.00
3626;DHT22;1827;50.534;8.316;2022-12-18T03:43:51;-10.40;1.00
3626;DHT22;1827;50.534;8.316;2022-12-18T03:49:08;-10.50;1.00
3626;DHT22;1827;50.534;8.316;2022-12-18T03:54:11;-10.50;1.00
3626;DHT22;1827;50.534;8.316;2022-12-18T03:56:46;-10.50;1.00
3626;DHT22;1827;50.534;8.316;2022-12-18T03:59:14;-10.50;1.00
3626;DHT22;1827;50.534;8.316;2022-12-18T04:01:42;-10.60;1.00
3626;DHT22;1827;50.534;8.316;2022-12-18T04:04:13;-10.60;1.00
3626;DHT22;1827;50.534;8.316;2022-12-18T04:06:40;-10.60;1.00
3626;DHT22;1827;50.534;8.316;2022-12-18T04:09:09;-10.60;1.00
3626;DHT22;1827;50.534;8.316;2022-12-18T04:11:41;-10.60;1.00
3626;DHT22;1827;50.534;8.316;2022-12-18T04:14:10;-10.60;1.00
3626;DHT22;1827;50.534;8.316;2022-12-18T04:16:37;-10.60;1.00
3626;DHT22;1827;50.534;8.316;2022-12-18T04:19:06;-10.60;1.00
3626;DHT22;1827;50.534;8.316;2022-12-18T04:21:37;-10.70;1.00
3626;DHT22;1827;50.534;8.316;2022-12-18T04:24:04;-10.70;1.00
3626;DHT22;1827;50.534;8.316;2022-12-18T04:26:31;-10.70;1.00
3626;DHT22;1827;50.534;8.316;2022-12-18T04:29:10;-10.70;1.00
3626;DHT22;1827;50.534;8.316;2022-12-18T04:31:36;-10.80;1.00
3626;DHT22;1827;50.534;8.316;2022-12-18T04:34:02;-10.70;1.00
3626;DHT22;1827;50.534;8.316;2022-12-18T04:36:28;-10.70;1.00
3626;DHT22;1827;50.534;8.316;2022-12-18T04:38:54;-10.70;1.00
3626;DHT22;1827;50.534;8.316;2022-12-18T04:41:20;-10.70;1.00
3626;DHT22;1827;50.534;8.316;2022-12-18T04:43:48;-10.70;1.00
3626;DHT22;1827;50.534;8.316;2022-12-18T04:46:14;-10.80;1.00
3626;DHT22;1827;50.534;8.316;2022-12-18T04:48:39;-10.80;1.00
3626;DHT22;1827;50.534;8.316;2022-12-18T04:51:06;-10.80;1.00
3626;DHT22;1827;50.534;8.316;2022-12-18T04:53:32;-10.90;1.00
3626;DHT22;1827;50.534;8.316;2022-12-18T04:58:30;-10.90;1.00
3626;DHT22;1827;50.534;8.316;2022-12-18T05:00:56;-10.90;1.00
3626;DHT22;1827;50.534;8.316;2022-12-18T05:03:22;-10.90;1.00
3626;DHT22;1827;50.534;8.316;2022-12-18T05:05:51;-10.90;1.00
3626;DHT22;1827;50.534;8.316;2022-12-18T05:08:17;-10.90;1.00
3626;DHT22;1827;50.534;8.316;2022-12-18T05:10:43;-10.90;1.00
3626;DHT22;1827;50.534;8.316;2022-12-18T05:13:09;-10.90;1.00
3626;DHT22;1827;50.534;8.316;2022-12-18T05:15:34;-11.00;1.00
3626;DHT22;1827;50.534;8.316;2022-12-18T05:18:00;-11.00;1.00
3626;DHT22;1827;50.534;8.316;2022-12-18T05:20:26;-11.00;1.00
3626;DHT22;1827;50.534;8.316;2022-12-18T05:22:52;-11.00;1.00
3626;DHT22;1827;50.534;8.316;2022-12-18T05:25:17;-11.00;1.00
3626;DHT22;1827;50.534;8.316;2022-12-18T05:27:43;-11.10;1.00
3626;DHT22;1827;50.534;8.316;2022-12-18T05:30:09;-11.10;1.00
3626;DHT22;1827;50.534;8.316;2022-12-18T05:32:35;-11.10;1.00
3626;DHT22;1827;50.534;8.316;2022-12-18T05:35:02;-11.10;1.00
3626;DHT22;1827;50.534;8.316;2022-12-18T05:37:28;-11.10;1.00
3626;DHT22;1827;50.534;8.316;2022-12-18T05:39:55;-11.10;1.00
3626;DHT22;1827;50.534;8.316;2022-12-18T05:42:21;-11.10;1.00
3626;DHT22;1827;50.534;8.316;2022-12-18T05:44:46;-11.10;1.00
3626;DHT22;1827;50.534;8.316;2022-12-18T05:47:12;-11.20;1.00
3626;DHT22;1827;50.534;8.316;2022-12-18T05:49:38;-11.10;1.00
3626;DHT22;1827;50.534;8.316;2022-12-18T05:52:03;-11.20;1.00
3626;DHT22;1827;50.534;8.316;2022-12-18T05:54:29;-11.20;1.00
3626;DHT22;1827;50.534;8.316;2022-12-18T05:56:55;-11.20;1.00
3626;DHT22;1827;50.534;8.316;2022-12-18T05:59:20;-11.30;1.00
3626;DHT22;1827;50.534;8.316;2022-12-18T06:01:46;-11.20;1.00
3626;DHT22;1827;50.534;8.316;2022-12-18T06:04:12;-11.30;1.00
3626;DHT22;1827;50.534;8.316;2022-12-18T06:06:38;-11.30;1.00
3626;DHT22;1827;50.534;8.316;2022-12-18T06:09:04;-11.40;1.00
3626;DHT22;1827;50.534;8.316;2022-12-18T06:11:36;-11.40;1.00
3626;DHT22;1827;50.534;8.316;2022-12-18T06:14:02;-11.30;1.00
3626;DHT22;1827;50.534;8.316;2022-12-18T06:16:28;-11.30;1.00
3626;DHT22;1827;50.534;8.316;2022-12-18T06:18:57;-11.30;1.00
3626;DHT22;1827;50.534;8.316;2022-12-18T06:21:23;-11.30;1.00
3626;DHT22;1827;50.534;8.316;2022-12-18T06:23:48;-11.30;1.00
3626;DHT22;1827;50.534;8.316;2022-12-18T06:26:14;-11.30;1.00
3626;DHT22;1827;50.534;8.316;2022-12-18T06:28:40;-11.30;1.00
3626;DHT22;1827;50.534;8.316;2022-12-18T06:31:06;-11.30;1.00
3626;DHT22;1827;50.534;8.316;2022-12-18T06:33:32;-11.40;1.00
3626;DHT22;1827;50.534;8.316;2022-12-18T06:36:02;-11.30;1.00
3626;DHT22;1827;50.534;8.316;2022-12-18T06:38:28;-11.40;1.00
3626;DHT22;1827;50.534;8.316;2022-12-18T06:40:53;-11.40;1.00
3626;DHT22;1827;50.534;8.316;2022-12-18T06:43:20;-11.40;1.00
3626;DHT22;1827;50.534;8.316;2022-12-18T06:45:46;-11.40;1.00
3626;DHT22;1827;50.534;8.316;2022-12-18T06:48:20;-11.40;1.00
3626;DHT22;1827;50.534;8.316;2022-12-18T06:50:46;-11.40;1.00
3626;DHT22;1827;50.534;8.316;2022-12-18T06:53:12;-11.40;1.00
3626;DHT22;1827;50.534;8.316;2022-12-18T06:55:37;-11.40;1.00
3626;DHT22;1827;50.534;8.316;2022-12-18T06:58:03;-11.30;1.00
3626;DHT22;1827;50.534;8.316;2022-12-18T07:00:29;-11.30;1.00
3626;DHT22;1827;50.534;8.316;2022-12-18T07:02:57;-11.40;1.00
3626;DHT22;1827;50.534;8.316;2022-12-18T07:05:23;-11.30;1.00
3626;DHT22;1827;50.534;8.316;2022-12-18T07:07:49;-11.40;1.00
3626;DHT22;1827;50.534;8.316;2022-12-18T07:10:17;-11.40;1.00
3626;DHT22;1827;50.534;8.316;2022-12-18T07:12:44;-11.40;1.00
3626;DHT22;1827;50.534;8.316;2022-12-18T07:15:11;-11.40;1.00
3626;DHT22;1827;50.534;8.316;2022-12-18T07:17:38;-11.40;1.00
3626;DHT22;1827;50.534;8.316;2022-12-18T07:20:07;-11.40;1.00
3626;DHT22;1827;50.534;8.316;2022-12-18T07:22:33;-11.40;1.00
3626;DHT22;1827;50.534;8.316;2022-12-18T07:24:58;-11.40;1.00
3626;DHT22;1827;50.534;8.316;2022-12-18T07:27:26;-11.40;1.00
3626;DHT22;1827;50.534;8.316;2022-12-18T07:29:52;-11.40;1.00
3626;DHT22;1827;50.534;8.316;2022-12-18T07:32:22;-11.40;1.00
3626;DHT22;1827;50.534;8.316;2022-12-18T07:34:48;-11.40;1.00
3626;DHT22;1827;50.534;8.316;2022-12-18T07:37:14;-11.40;1.00
3626;DHT22;1827;50.534;8.316;2022-12-18T07:39:40;-11.30;1.00
3626;DHT22;1827;50.534;8.316;2022-12-18T07:42:07;-11.30;1.00
3626;DHT22;1827;50.534;8.316;2022-12-18T07:44:53;-11.30;1.00
3626;DHT22;1827;50.534;8.316;2022-12-18T07:47:20;-11.30;1.00
3626;DHT22;1827;50.534;8.316;2022-12-18T07:49:51;-11.30;1.00
3626;DHT22;1827;50.534;8.316;2022-12-18T07:52:18;-11.30;1.00
3626;DHT22;1827;50.534;8.316;2022-12-18T07:54:45;-11.30;1.00
3626;DHT22;1827;50.534;8.316;2022-12-18T07:57:16;-11.30;1.00
3626;DHT22;1827;50.534;8.316;2022-12-18T07:59:42;-11.30;1.00
3626;DHT22;1827;50.534;8.316;2022-12-18T08:02:08;-11.20;1.00
3626;DHT22;1827;50.534;8.316;2022-12-18T08:04:33;-11.30;1.00
3626;DHT22;1827;50.534;8.316;2022-12-18T08:07:00;-11.30;1.00
3626;DHT22;1827;50.534;8.316;2022-12-18T08:09:25;-11.20;1.00
3626;DHT22;1827;50.534;8.316;2022-12-18T08:11:51;-11.20;1.00
3626;DHT22;1827;50.534;8.316;2022-12-18T08:14:17;-11.20;1.00
3626;DHT22;1827;50.534;8.316;2022-12-18T08:16:43;-11.10;1.00
3626;DHT22;1827;50.534;8.316;2022-12-18T08:19:10;-11.10;1.00
3626;DHT22;1827;50.534;8.316;2022-12-18T08:21:37;-11.00;1.00
3626;DHT22;1827;50.534;8.316;2022-12-18T08:24:05;-11.00;1.00
3626;DHT22;1827;50.534;8.316;2022-12-18T08:26:32;-10.80;1.00
3626;DHT22;1827;50.534;8.316;2022-12-18T08:28:58;-10.80;1.00
3626;DHT22;1827;50.534;8.316;2022-12-18T08:31:28;-10.70;1.00
3626;DHT22;1827;50.534;8.316;2022-12-18T08:33:55;-10.60;1.00
3626;DHT22;1827;50.534;8.316;2022-12-18T08:36:22;-10.60;1.00
3626;DHT22;1827;50.534;8.316;2022-12-18T08:38:48;-10.50;1.00
3626;DHT22;1827;50.534;8.316;2022-12-18T08:41:15;-10.40;1.00
3626;DHT22;1827;50.534;8.316;2022-12-18T08:43:42;-10.40;1.00
3626;DHT22;1827;50.534;8.316;2022-12-18T08:46:27;-10.40;1.00
3626;DHT22;1827;50.534;8.316;2022-12-18T08:48:57;-10.30;1.00
3626;DHT22;1827;50.534;8.316;2022-12-18T08:51:22;-10.40;1.00
3626;DHT22;1827;50.534;8.316;2022-12-18T08:53:48;-10.30;1.00
3626;DHT22;1827;50.534;8.316;2022-12-18T08:56:14;-10.10;1.00
3626;DHT22;1827;50.534;8.316;2022-12-18T08:58:40;-10.00;1.00
3626;DHT22;1827;50.534;8.316;2022-12-18T09:01:06;-9.90;1.00
3626;DHT22;1827;50.534;8.316;2022-12-18T09:03:36;-9.70;1.00
3626;DHT22;1827;50.534;8.316;2022-12-18T09:06:02;-9.50;1.00
3626;DHT22;1827;50.534;8.316;2022-12-18T09:08:28;-9.40;1.00
3626;DHT22;1827;50.534;8.316;2022-12-18T09:10:54;-9.50;1.00
3626;DHT22;1827;50.534;8.316;2022-12-18T09:13:20;-9.50;1.00
3626;DHT22;1827;50.534;8.316;2022-12-18T09:15:46;-9.30;1.00
3626;DHT22;1827;50.534;8.316;2022-12-18T09:18:14;-9.10;1.00
3626;DHT22;1827;50.534;8.316;2022-12-18T09:20:40;-9.00;1.00
3626;DHT22;1827;50.534;8.316;2022-12-18T09:23:07;-9.20;1.00
3626;DHT22;1827;50.534;8.316;2022-12-18T09:25:34;-9.20;1.00
3626;DHT22;1827;50.534;8.316;2022-12-18T09:28:02;-9.00;1.00
3626;DHT22;1827;50.534;8.316;2022-12-18T09:30:28;-8.80;1.00
3626;DHT22;1827;50.534;8.316;2022-12-18T09:32:54;-8.70;1.00
3626;DHT22;1827;50.534;8.316;2022-12-18T09:35:25;-8.60;1.00
3626;DHT22;1827;50.534;8.316;2022-12-18T09:37:54;-8.60;1.00
3626;DHT22;1827;50.534;8.316;2022-12-18T09:40:21;-8.20;1.00
3626;DHT22;1827;50.534;8.316;2022-12-18T09:42:51;-8.20;1.00
3626;DHT22;1827;50.534;8.316;2022-12-18T09:45:18;-8.00;1.00
3626;DHT22;1827;50.534;8.316;2022-12-18T09:47:46;-7.80;1.00
3626;DHT22;1827;50.534;8.316;2022-12-18T09:50:23;-7.80;1.00
3626;DHT22;1827;50.534;8.316;2022-12-18T09:52:51;-7.90;1.00
3626;DHT22;1827;50.534;8.316;2022-12-18T09:55:25;-7.80;1.00
3626;DHT22;1827;50.534;8.316;2022-12-18T09:57:56;-7.70;1.00
3626;DHT22;1827;50.534;8.316;2022-12-18T10:00:26;-7.60;1.00
3626;DHT22;1827;50.534;8.316;2022-12-18T10:02:53;-7.60;1.00
3626;DHT22;1827;50.534;8.316;2022-12-18T10:08:05;-7.40;1.00
3626;DHT22;1827;50.534;8.316;2022-12-18T10:10:38;-7.10;1.00
3626;DHT22;1827;50.534;8.316;2022-12-18T10:15:36;-6.90;1.00
3626;DHT22;1827;50.534;8.316;2022-12-18T10:18:13;-6.80;1.00
3626;DHT22;1827;50.534;8.316;2022-12-18T10:20:49;-6.80;1.00
3626;DHT22;1827;50.534;8.316;2022-12-18T10:28:18;-6.40;1.00
3626;DHT22;1827;50.534;8.316;2022-12-18T10:30:44;-6.00;1.00
3626;DHT22;1827;50.534;8.316;2022-12-18T10:33:16;-5.70;1.00
3626;DHT22;1827;50.534;8.316;2022-12-18T10:35:42;-5.50;1.00
3626;DHT22;1827;50.534;8.316;2022-12-18T10:40:48;-5.30;1.00
3626;DHT22;1827;50.534;8.316;2022-12-18T10:43:14;-5.30;1.00
3626;DHT22;1827;50.534;8.316;2022-12-18T10:45:42;-5.10;1.00
3626;DHT22;1827;50.534;8.316;2022-12-18T10:48:24;-5.20;1.00
3626;DHT22;1827;50.534;8.316;2022-12-18T10:50:52;-5.30;1.00
3626;DHT22;1827;50.534;8.316;2022-12-18T10:53:24;-5.20;1.00
3626;DHT22;1827;50.534;8.316;2022-12-18T10:55:52;-5.10;1.00
3626;DHT22;1827;50.534;8.316;2022-12-18T10:58:26;-5.10;1.00
3626;DHT22;1827;50.534;8.316;2022-12-18T11:03:37;-5.10;1.00
3626;DHT22;1827;50.534;8.316;2022-12-18T11:08:33;-5.00;1.00
3626;DHT22;1827;50.534;8.316;2022-12-18T11:11:00;-4.90;1.00
3626;DHT22;1827;50.534;8.316;2022-12-18T11:13:29;-4.90;1.00
3626;DHT22;1827;50.534;8.316;2022-12-18T11:15:56;-4.80;1.00
3626;DHT22;1827;50.534;8.316;2022-12-18T11:18:30;-4.80;1.00
3626;DHT22;1827;50.534;8.316;2022-12-18T11:20:59;-4.80;1.00
3626;DHT22;1827;50.534;8.316;2022-12-18T11:23:26;-4.60;1.00
3626;DHT22;1827;50.534;8.316;2022-12-18T11:25:55;-4.60;1.00
3626;DHT22;1827;50.534;8.316;2022-12-18T11:28:28;-4.70;1.00
3626;DHT22;1827;50.534;8.316;2022-12-18T11:31:17;-4.70;1.00
3626;DHT22;1827;50.534;8.316;2022-12-18T11:33:42;-4.70;1.00
3626;DHT22;1827;50.534;8.316;2022-12-18T11:36:09;-4.60;1.00
3626;DHT22;1827;50.534;8.316;2022-12-18T11:38:39;-4.60;1.00
3626;DHT22;1827;50.534;8.316;2022-12-18T11:43:40;-4.50;1.00
3626;DHT22;1827;50.534;8.316;2022-12-18T11:46:13;-4.60;1.00
3626;DHT22;1827;50.534;8.316;2022-12-18T11:49:03;-4.60;1.00
3626;DHT22;1827;50.534;8.316;2022-12-18T11:51:29;-4.50;1.00
3626;DHT22;1827;50.534;8.316;2022-12-18T11:53:57;-4.50;1.00
3626;DHT22;1827;50.534;8.316;2022-12-18T11:56:26;-4.50;1.00
3626;DHT22;1827;50.534;8.316;2022-12-18T11:59:08;-4.50;1.00
3626;DHT22;1827;50.534;8.316;2022-12-18T12:09:37;-4.20;1.00
3626;DHT22;1827;50.534;8.316;2022-12-18T12:21:58;-4.20;1.00
3626;DHT22;1827;50.534;8.316;2022-12-18T12:27:06;-4.10;1.00
3626;DHT22;1827;50.534;8.316;2022-12-18T12:34:56;-4.10;1.00
3626;DHT22;1827;50.534;8.316;2022-12-18T12:40:15;-4.10;1.00
3626;DHT22;1827;50.534;8.316;2022-12-18T12:42:44;-4.10;1.00
3626;DHT22;1827;50.534;8.316;2022-12-18T12:45:35;-4.00;1.00
3626;DHT22;1827;50.534;8.316;2022-12-18T12:48:02;-4.00;1.00
3626;DHT22;1827;50.534;8.316;2022-12-18T12:50:33;-4.00;1.00
3626;DHT22;1827;50.534;8.316;2022-12-18T12:53:02;-4.00;1.00
3626;DHT22;1827;50.534;8.316;2022-12-18T12:55:33;-4.00;1.00
3626;DHT22;1827;50.534;8.316;2022-12-18T13:00:31;-3.90;1.00
3626;DHT22;1827;50.534;8.316;2022-12-18T13:05:38;-3.90;1.00
3626;DHT22;1827;50.534;8.316;2022-12-18T13:08:07;-3.80;1.00
3626;DHT22;1827;50.534;8.316;2022-12-18T13:13:03;-3.60;1.00
3626;DHT22;1827;50.534;8.316;2022-12-18T13:15:47;-3.60;1.00
3626;DHT22;1827;50.534;8.316;2022-12-18T13:20:40;-3.80;1.00
3626;DHT22;1827;50.534;8.316;2022-12-18T13:25:48;-3.70;1.00
3626;DHT22;1827;50.534;8.316;2022-12-18T13:28:15;-3.90;1.00
3626;DHT22;1827;50.534;8.316;2022-12-18T13:30:47;-3.80;1.00
3626;DHT22;1827;50.534;8.316;2022-12-18T13:46:00;-4.10;1.00
3626;DHT22;1827;50.534;8.316;2022-12-18T13:48:29;-4.30;1.00
3626;DHT22;1827;50.534;8.316;2022-12-18T13:51:00;-4.20;1.00
3626;DHT22;1827;50.534;8.316;2022-12-18T13:53:33;-4.10;1.00
3626;DHT22;1827;50.534;8.316;2022-12-18T13:56:02;-4.10;1.00
3626;DHT22;1827;50.534;8.316;2022-12-18T13:58:28;-4.20;1.00
3626;DHT22;1827;50.534;8.316;2022-12-18T14:00:55;-4.30;1.00
3626;DHT22;1827;50.534;8.316;2022-12-18T14:03:24;-4.50;1.00
3626;DHT22;1827;50.534;8.316;2022-12-18T14:05:53;-4.50;1.00
3626;DHT22;1827;50.534;8.316;2022-12-18T14:08:22;-4.60;1.00
3626;DHT22;1827;50.534;8.316;2022-12-18T14:10:49;-4.70;1.00
3626;DHT22;1827;50.534;8.316;2022-12-18T14:13:28;-4.70;1.00
3626;DHT22;1827;50.534;8.316;2022-12-18T14:15:55;-4.70;1.00
3626;DHT22;1827;50.534;8.316;2022-12-18T14:18:23;-4.70;1.00
3626;DHT22;1827;50.534;8.316;2022-12-18T14:20:57;-4.80;1.00
3626;DHT22;1827;50.534;8.316;2022-12-18T14:25:53;-4.70;1.00
3626;DHT22;1827;50.534;8.316;2022-12-18T14:28:20;-4.70;1.00
3626;DHT22;1827;50.534;8.316;2022-12-18T14:30:47;-4.80;1.00
3626;DHT22;1827;50.534;8.316;2022-12-18T14:33:15;-4.80;1.00
3626;DHT22;1827;50.534;8.316;2022-12-18T14:35:42;-4.90;1.00
3626;DHT22;1827;50.534;8.316;2022-12-18T14:38:17;-4.80;1.00
3626;DHT22;1827;50.534;8.316;2022-12-18T14:40:46;-4.90;1.00
3626;DHT22;1827;50.534;8.316;2022-12-18T14:43:13;-4.90;1.00
3626;DHT22;1827;50.534;8.316;2022-12-18T14:45:40;-5.00;1.00
3626;DHT22;1827;50.534;8.316;2022-12-18T14:48:08;-5.00;1.00
3626;DHT22;1827;50.534;8.316;2022-12-18T14:50:35;-5.00;1.00
3626;DHT22;1827;50.534;8.316;2022-12-18T14:53:01;-5.10;1.00
3626;DHT22;1827;50.534;8.316;2022-12-18T14:55:29;-5.10;1.00
3626;DHT22;1827;50.534;8.316;2022-12-18T14:57:56;-5.10;1.00
3626;DHT22;1827;50.534;8.316;2022-12-18T15:00:24;-5.10;1.00
3626;DHT22;1827;50.534;8.316;2022-12-18T15:02:54;-5.10;1.00
3626;DHT22;1827;50.534;8.316;2022-12-18T15:05:25;-5.10;1.00
3626;DHT22;1827;50.534;8.316;2022-12-18T15:07:52;-5.10;1.00
3626;DHT22;1827;50.534;8.316;2022-12-18T15:10:20;-5.20;1.00
3626;DHT22;1827;50.534;8.316;2022-12-18T15:16:05;-5.20;1.00
3626;DHT22;1827;50.534;8.316;2022-12-18T15:18:12;-5.20;1.00
3626;DHT22;1827;50.534;8.316;2022-12-18T15:23:26;-5.20;1.00
3626;DHT22;1827;50.534;8.316;2022-12-18T15:25:56;-5.30;1.00
3626;DHT22;1827;50.534;8.316;2022-12-18T15:28:27;-5.30;1.00
3626;DHT22;1827;50.534;8.316;2022-12-18T15:31:00;-5.30;1.00
3626;DHT22;1827;50.534;8.316;2022-12-18T15:33:29;-5.30;1.00
3626;DHT22;1827;50.534;8.316;2022-12-18T15:35:58;-5.30;1.00
3626;DHT22;1827;50.534;8.316;2022-12-18T15:38:24;-5.30;1.00
3626;DHT22;1827;50.534;8.316;2022-12-18T15:40:52;-5.30;1.00
3626;DHT22;1827;50.534;8.316;2022-12-18T15:43:23;-5.30;1.00
3626;DHT22;1827;50.534;8.316;2022-12-18T15:46:01;-5.30;1.00
3626;DHT22;1827;50.534;8.316;2022-12-18T15:48:27;-5.20;1.00
3626;DHT22;1827;50.534;8.316;2022-12-18T15:50:55;-5.20;1.00
3626;DHT22;1827;50.534;8.316;2022-12-18T15:53:27;-5.20;1.00
3626;DHT22;1827;50.534;8.316;2022-12-18T15:55:54;-5.20;1.00
3626;DHT22;1827;50.534;8.316;2022-12-18T15:58:40;-5.10;1.00
3626;DHT22;1827;50.534;8.316;2022-12-18T16:01:07;-5.10;1.00
3626;DHT22;1827;50.534;8.316;2022-12-18T16:03:34;-5.10;1.00
3626;DHT22;1827;50.534;8.316;2022-12-18T16:05:59;-5.10;1.00
3626;DHT22;1827;50.534;8.316;2022-12-18T16:08:30;-5.10;1.00
3626;DHT22;1827;50.534;8.316;2022-12-18T16:10:56;-5.10;1.00
3626;DHT22;1827;50.534;8.316;2022-12-18T16:13:23;-5.00;1.00
3626;DHT22;1827;50.534;8.316;2022-12-18T16:15:48;-5.00;1.00
3626;DHT22;1827;50.534;8.316;2022-12-18T16:18:14;-5.00;1.00
3626;DHT22;1827;50.534;8.316;2022-12-18T16:20:40;-5.00;1.00
3626;DHT22;1827;50.534;8.316;2022-12-18T16:23:05;-5.00;1.00
3626;DHT22;1827;50.534;8.316;2022-12-18T16:25:31;-5.00;1.00
3626;DHT22;1827;50.534;8.316;2022-12-18T16:27:57;-5.00;1.00
3626;DHT22;1827;50.534;8.316;2022-12-18T16:30:23;-5.00;1.00
3626;DHT22;1827;50.534;8.316;2022-12-18T16:32:50;-5.00;1.00
3626;DHT22;1827;50.534;8.316;2022-12-18T16:35:16;-5.00;1.00
3626;DHT22;1827;50.534;8.316;2022-12-18T16:37:42;-5.00;1.00
3626;DHT22;1827;50.534;8.316;2022-12-18T16:40:10;-5.00;1.00
3626;DHT22;1827;50.534;8.316;2022-12-18T16:42:36;-5.00;1.00
3626;DHT22;1827;50.534;8.316;2022-12-18T16:45:02;-5.00;1.00
3626;DHT22;1827;50.534;8.316;2022-12-18T16:47:28;-5.00;1.00
3626;DHT22;1827;50.534;8.316;2022-12-18T16:49:53;-5.00;1.00
3626;DHT22;1827;50.534;8.316;2022-12-18T16:52:20;-5.00;1.00
3626;DHT22;1827;50.534;8.316;2022-12-18T16:54:46;-5.00;1.00
3626;DHT22;1827;50.534;8.316;2022-12-18T16:57:12;-5.00;1.00
3626;DHT22;1827;50.534;8.316;2022-12-18T16:59:39;-5.00;1.00
3626;DHT22;1827;50.534;8.316;2022-12-18T17:02:06;-5.00;1.00
3626;DHT22;1827;50.534;8.316;2022-12-18T17:04:33;-5.00;1.00
3626;DHT22;1827;50.534;8.316;2022-12-18T17:06:59;-5.00;1.00
3626;DHT22;1827;50.534;8.316;2022-12-18T17:09:24;-4.90;1.00
3626;DHT22;1827;50.534;8.316;2022-12-18T17:11:51;-4.90;1.00
3626;DHT22;1827;50.534;8.316;2022-12-18T17:14:17;-4.90;1.00
3626;DHT22;1827;50.534;8.316;2022-12-18T17:16:43;-4.90;1.00
3626;DHT22;1827;50.534;8.316;2022-12-18T17:19:10;-4.90;1.00
3626;DHT22;1827;50.534;8.316;2022-12-18T17:21:35;-4.90;1.00
3626;DHT22;1827;50.534;8.316;2022-12-18T17:24:02;-4.90;1.00
3626;DHT22;1827;50.534;8.316;2022-12-18T17:26:28;-4.90;1.00
3626;DHT22;1827;50.534;8.316;2022-12-18T17:28:57;-4.90;1.00
3626;DHT22;1827;50.534;8.316;2022-12-18T17:31:25;-4.90;1.00
3626;DHT22;1827;50.534;8.316;2022-12-18T17:33:52;-4.90;1.00
3626;DHT22;1827;50.534;8.316;2022-12-18T17:36:18;-4.80;1.00
3626;DHT22;1827;50.534;8.316;2022-12-18T17:38:51;-4.90;1.00
3626;DHT22;1827;50.534;8.316;2022-12-18T17:41:18;-4.90;1.00
3626;DHT22;1827;50.534;8.316;2022-12-18T17:43:50;-4.90;1.00
3626;DHT22;1827;50.534;8.316;2022-12-18T17:46:16;-4.90;1.00
3626;DHT22;1827;50.534;8.316;2022-12-18T17:48:42;-4.90;1.00
3626;DHT22;1827;50.534;8.316;2022-12-18T17:51:08;-4.90;1.00
3626;DHT22;1827;50.534;8.316;2022-12-18T17:53:37;-4.90;1.00
3626;DHT22;1827;50.534;8.316;2022-12-18T17:56:06;-4.90;1.00
3626;DHT22;1827;50.534;8.316;2022-12-18T17:58:32;-4.90;1.00
3626;DHT22;1827;50.534;8.316;2022-12-18T18:00:59;-4.90;1.00
3626;DHT22;1827;50.534;8.316;2022-12-18T18:03:24;-4.90;1.00
3626;DHT22;1827;50.534;8.316;2022-12-18T18:05:56;-4.90;1.00
3626;DHT22;1827;50.534;8.316;2022-12-18T18:08:23;-4.90;1.00
3626;DHT22;1827;50.534;8.316;2022-12-18T18:10:48;-4.80;1.00
3626;DHT22;1827;50.534;8.316;2022-12-18T18:13:19;-4.80;1.00